sensor_id;sensor_type;location;lat;lon;timestamp;P1;durP1;ratioP1;P2;durP2;ratioP2
33672;SDS011;20011;51.510;9.942;2022-09-01T00:01:46;3.38;;;1.10;;
33672;SDS011;20011;51.510;9.942;2022-09-01T00:04:15;1.55;;;0.98;;
33672;SDS011;20011;51.510;9.942;2022-09-01T00:06:46;1.00;;;0.80;;
33672;SDS011;20011;51.510;9.942;2022-09-01T00:09:15;1.73;;;1.08;;
33672;SDS011;20011;51.510;9.942;2022-09-01T00:11:45;1.92;;;1.35;;
33672;SDS011;20011;51.510;9.942;2022-09-01T00:14:17;1.70;;;1.02;;
33672;SDS011;20011;51.510;9.942;2022-09-01T00:16:59;1.58;;;1.17;;
33672;SDS011;20011;51.510;9.942;2022-09-01T00:19:29;1.42;;;1.05;;
33672;SDS011;20011;51.510;9.942;2022-09-01T00:21:59;4.50;;;1.33;;
33672;SDS011;20011;51.510;9.942;2022-09-01T00:24:26;1.60;;;1.00;;
33672;SDS011;20011;51.510;9.942;2022-09-01T00:26:54;3.10;;;1.20;;
33672;SDS011;20011;51.510;9.942;2022-09-01T00:29:23;4.10;;;1.23;;
33672;SDS011;20011;51.510;9.942;2022-09-01T00:31:51;3.20;;;1.05;;
33672;SDS011;20011;51.510;9.942;2022-09-01T00:34:19;1.30;;;1.10;;
33672;SDS011;20011;51.510;9.942;2022-09-01T00:36:48;3.05;;;1.10;;
33672;SDS011;20011;51.510;9.942;2022-09-01T00:39:15;2.08;;;1.20;;
33672;SDS011;20011;51.510;9.942;2022-09-01T00:41:42;3.42;;;1.20;;
33672;SDS011;20011;51.510;9.942;2022-09-01T00:44:12;7.57;;;1.17;;
33672;SDS011;20011;51.510;9.942;2022-09-01T00:46:42;5.00;;;1.30;;
33672;SDS011;20011;51.510;9.942;2022-09-01T00:49:20;2.53;;;1.30;;
33672;SDS011;20011;51.510;9.942;2022-09-01T00:52:04;4.43;;;1.10;;
33672;SDS011;20011;51.510;9.942;2022-09-01T00:54:39;3.50;;;1.40;;
33672;SDS011;20011;51.510;9.942;2022-09-01T00:57:10;2.10;;;1.20;;
33672;SDS011;20011;51.510;9.942;2022-09-01T00:59:40;3.10;;;1.20;;
33672;SDS011;20011;51.510;9.942;2022-09-01T01:02:12;2.88;;;1.40;;
33672;SDS011;20011;51.510;9.942;2022-09-01T01:04:39;5.65;;;1.30;;
33672;SDS011;20011;51.510;9.942;2022-09-01T01:07:09;2.92;;;1.30;;
33672;SDS011;20011;51.510;9.942;2022-09-01T01:09:39;1.88;;;1.15;;
33672;SDS011;20011;51.510;9.942;2022-09-01T01:12:09;1.70;;;1.33;;
33672;SDS011;20011;51.510;9.942;2022-09-01T01:14:43;2.42;;;1.15;;
33672;SDS011;20011;51.510;9.942;2022-09-01T01:17:20;2.33;;;1.00;;
33672;SDS011;20011;51.510;9.942;2022-09-01T01:19:52;2.33;;;1.02;;
33672;SDS011;20011;51.510;9.942;2022-09-01T01:25:33;1.08;;;0.95;;
33672;SDS011;20011;51.510;9.942;2022-09-01T01:28:05;2.08;;;1.30;;
33672;SDS011;20011;51.510;9.942;2022-09-01T01:30:43;7.20;;;1.25;;
33672;SDS011;20011;51.510;9.942;2022-09-01T01:33:19;2.45;;;0.80;;
33672;SDS011;20011;51.510;9.942;2022-09-01T01:35:50;3.25;;;1.45;;
33672;SDS011;20011;51.510;9.942;2022-09-01T01:38:18;3.33;;;1.83;;
33672;SDS011;20011;51.510;9.942;2022-09-01T01:40:50;4.45;;;1.60;;
33672;SDS011;20011;51.510;9.942;2022-09-01T01:43:21;2.35;;;1.00;;
33672;SDS011;20011;51.510;9.942;2022-09-01T01:45:50;2.92;;;1.38;;
33672;SDS011;20011;51.510;9.942;2022-09-01T01:48:24;1.90;;;1.15;;
33672;SDS011;20011;51.510;9.942;2022-09-01T01:50:51;3.08;;;1.48;;
33672;SDS011;20011;51.510;9.942;2022-09-01T01:55:50;2.75;;;1.52;;
33672;SDS011;20011;51.510;9.942;2022-09-01T01:58:18;1.83;;;1.25;;
33672;SDS011;20011;51.510;9.942;2022-09-01T02:00:49;7.22;;;1.20;;
33672;SDS011;20011;51.510;9.942;2022-09-01T02:03:18;4.00;;;1.02;;
33672;SDS011;20011;51.510;9.942;2022-09-01T02:05:50;2.03;;;1.30;;
33672;SDS011;20011;51.510;9.942;2022-09-01T02:08:19;2.17;;;0.90;;
33672;SDS011;20011;51.510;9.942;2022-09-01T02:10:49;3.47;;;1.35;;
33672;SDS011;20011;51.510;9.942;2022-09-01T02:13:19;1.38;;;0.98;;
33672;SDS011;20011;51.510;9.942;2022-09-01T02:16:01;2.75;;;1.55;;
33672;SDS011;20011;51.510;9.942;2022-09-01T02:18:34;2.60;;;1.20;;
33672;SDS011;20011;51.510;9.942;2022-09-01T02:21:04;6.80;;;1.15;;
33672;SDS011;20011;51.510;9.942;2022-09-01T02:23:40;4.10;;;1.38;;
33672;SDS011;20011;51.510;9.942;2022-09-01T02:26:07;3.80;;;1.60;;
33672;SDS011;20011;51.510;9.942;2022-09-01T02:28:46;1.48;;;1.23;;
33672;SDS011;20011;51.510;9.942;2022-09-01T02:31:24;2.38;;;1.10;;
33672;SDS011;20011;51.510;9.942;2022-09-01T02:33:55;5.55;;;1.48;;
33672;SDS011;20011;51.510;9.942;2022-09-01T02:36:23;2.97;;;1.40;;
33672;SDS011;20011;51.510;9.942;2022-09-01T02:38:52;1.55;;;1.10;;
33672;SDS011;20011;51.510;9.942;2022-09-01T02:41:22;1.75;;;1.05;;
33672;SDS011;20011;51.510;9.942;2022-09-01T02:43:51;3.42;;;1.30;;
33672;SDS011;20011;51.510;9.942;2022-09-01T02:46:19;1.58;;;0.93;;
33672;SDS011;20011;51.510;9.942;2022-09-01T02:48:50;2.05;;;1.23;;
33672;SDS011;20011;51.510;9.942;2022-09-01T02:51:19;6.40;;;1.67;;
33672;SDS011;20011;51.510;9.942;2022-09-01T02:53:49;2.47;;;1.30;;
33672;SDS011;20011;51.510;9.942;2022-09-01T02:56:19;1.97;;;1.17;;
33672;SDS011;20011;51.510;9.942;2022-09-01T02:58:50;2.03;;;1.50;;
33672;SDS011;20011;51.510;9.942;2022-09-01T03:01:20;3.33;;;1.30;;
33672;SDS011;20011;51.510;9.942;2022-09-01T03:03:52;1.60;;;1.00;;
33672;SDS011;20011;51.510;9.942;2022-09-01T03:06:21;4.40;;;1.27;;
33672;SDS011;20011;51.510;9.942;2022-09-01T03:08:50;5.50;;;1.30;;
33672;SDS011;20011;51.510;9.942;2022-09-01T03:11:19;1.80;;;1.40;;
33672;SDS011;20011;51.510;9.942;2022-09-01T03:13:47;4.68;;;1.13;;
33672;SDS011;20011;51.510;9.942;2022-09-01T03:16:14;2.20;;;1.50;;
33672;SDS011;20011;51.510;9.942;2022-09-01T03:18:42;2.78;;;1.48;;
33672;SDS011;20011;51.510;9.942;2022-09-01T03:21:09;1.48;;;1.38;;
33672;SDS011;20011;51.510;9.942;2022-09-01T03:23:43;2.03;;;1.23;;
33672;SDS011;20011;51.510;9.942;2022-09-01T03:26:11;5.25;;;1.23;;
33672;SDS011;20011;51.510;9.942;2022-09-01T03:28:40;2.95;;;1.02;;
33672;SDS011;20011;51.510;9.942;2022-09-01T03:31:07;2.60;;;1.40;;
33672;SDS011;20011;51.510;9.942;2022-09-01T03:33:35;1.70;;;1.33;;
33672;SDS011;20011;51.510;9.942;2022-09-01T03:36:05;2.55;;;0.98;;
33672;SDS011;20011;51.510;9.942;2022-09-01T03:38:41;3.38;;;1.20;;
33672;SDS011;20011;51.510;9.942;2022-09-01T03:41:10;3.03;;;1.25;;
33672;SDS011;20011;51.510;9.942;2022-09-01T03:43:38;2.28;;;1.35;;
33672;SDS011;20011;51.510;9.942;2022-09-01T03:46:13;2.13;;;1.42;;
33672;SDS011;20011;51.510;9.942;2022-09-01T03:48:47;3.08;;;1.23;;
33672;SDS011;20011;51.510;9.942;2022-09-01T03:51:16;2.97;;;1.25;;
33672;SDS011;20011;51.510;9.942;2022-09-01T03:53:46;2.13;;;1.30;;
33672;SDS011;20011;51.510;9.942;2022-09-01T03:56:13;3.42;;;1.08;;
33672;SDS011;20011;51.510;9.942;2022-09-01T03:58:41;1.42;;;1.00;;
33672;SDS011;20011;51.510;9.942;2022-09-01T04:01:15;8.30;;;2.00;;
33672;SDS011;20011;51.510;9.942;2022-09-01T04:03:43;2.08;;;1.30;;
33672;SDS011;20011;51.510;9.942;2022-09-01T04:06:15;2.55;;;1.35;;
33672;SDS011;20011;51.510;9.942;2022-09-01T04:08:44;1.83;;;1.27;;
33672;SDS011;20011;51.510;9.942;2022-09-01T04:11:14;4.93;;;1.30;;
33672;SDS011;20011;51.510;9.942;2022-09-01T04:13:46;3.30;;;1.25;;
33672;SDS011;20011;51.510;9.942;2022-09-01T04:16:18;3.00;;;1.25;;
33672;SDS011;20011;51.510;9.942;2022-09-01T04:19:09;1.55;;;1.02;;
33672;SDS011;20011;51.510;9.942;2022-09-01T04:21:47;1.30;;;1.20;;
33672;SDS011;20011;51.510;9.942;2022-09-01T04:24:20;2.20;;;1.33;;
33672;SDS011;20011;51.510;9.942;2022-09-01T04:26:50;2.25;;;1.20;;
33672;SDS011;20011;51.510;9.942;2022-09-01T04:29:19;4.43;;;1.05;;
33672;SDS011;20011;51.510;9.942;2022-09-01T04:31:57;2.08;;;1.23;;
33672;SDS011;20011;51.510;9.942;2022-09-01T04:34:34;1.00;;;0.75;;
33672;SDS011;20011;51.510;9.942;2022-09-01T04:37:06;3.35;;;1.52;;
33672;SDS011;20011;51.510;9.942;2022-09-01T04:39:53;5.90;;;1.17;;
33672;SDS011;20011;51.510;9.942;2022-09-01T04:42:24;4.95;;;1.42;;
33672;SDS011;20011;51.510;9.942;2022-09-01T04:44:55;4.15;;;1.00;;
33672;SDS011;20011;51.510;9.942;2022-09-01T04:47:24;1.45;;;1.10;;
33672;SDS011;20011;51.510;9.942;2022-09-01T04:50:05;3.25;;;1.50;;
33672;SDS011;20011;51.510;9.942;2022-09-01T04:52:43;6.65;;;1.27;;
33672;SDS011;20011;51.510;9.942;2022-09-01T04:55:25;1.40;;;0.90;;
33672;SDS011;20011;51.510;9.942;2022-09-01T04:57:56;1.38;;;1.20;;
33672;SDS011;20011;51.510;9.942;2022-09-01T05:00:26;5.60;;;1.50;;
33672;SDS011;20011;51.510;9.942;2022-09-01T05:02:59;1.92;;;1.13;;
33672;SDS011;20011;51.510;9.942;2022-09-01T05:05:52;6.30;;;1.83;;
33672;SDS011;20011;51.510;9.942;2022-09-01T05:08:20;3.13;;;1.15;;
33672;SDS011;20011;51.510;9.942;2022-09-01T05:10:52;1.30;;;1.17;;
33672;SDS011;20011;51.510;9.942;2022-09-01T05:13:43;2.08;;;1.30;;
33672;SDS011;20011;51.510;9.942;2022-09-01T05:16:13;2.22;;;1.17;;
33672;SDS011;20011;51.510;9.942;2022-09-01T05:18:52;1.63;;;1.20;;
33672;SDS011;20011;51.510;9.942;2022-09-01T05:21:23;4.10;;;1.30;;
33672;SDS011;20011;51.510;9.942;2022-09-01T05:23:52;2.85;;;1.27;;
33672;SDS011;20011;51.510;9.942;2022-09-01T05:26:25;3.60;;;1.33;;
33672;SDS011;20011;51.510;9.942;2022-09-01T05:28:57;1.10;;;1.00;;
33672;SDS011;20011;51.510;9.942;2022-09-01T05:31:27;2.05;;;1.23;;
33672;SDS011;20011;51.510;9.942;2022-09-01T05:34:00;3.42;;;1.45;;
33672;SDS011;20011;51.510;9.942;2022-09-01T05:36:29;6.43;;;1.67;;
33672;SDS011;20011;51.510;9.942;2022-09-01T05:39:01;3.03;;;1.40;;
33672;SDS011;20011;51.510;9.942;2022-09-01T05:41:30;6.73;;;1.13;;
33672;SDS011;20011;51.510;9.942;2022-09-01T05:44:01;2.15;;;1.42;;
33672;SDS011;20011;51.510;9.942;2022-09-01T05:46:35;4.75;;;1.40;;
33672;SDS011;20011;51.510;9.942;2022-09-01T05:49:06;2.00;;;1.35;;
33672;SDS011;20011;51.510;9.942;2022-09-01T05:51:40;2.40;;;1.33;;
33672;SDS011;20011;51.510;9.942;2022-09-01T05:54:12;1.85;;;1.10;;
33672;SDS011;20011;51.510;9.942;2022-09-01T05:56:40;2.60;;;1.00;;
33672;SDS011;20011;51.510;9.942;2022-09-01T05:59:13;2.80;;;1.17;;
33672;SDS011;20011;51.510;9.942;2022-09-01T06:01:50;3.30;;;1.38;;
33672;SDS011;20011;51.510;9.942;2022-09-01T06:04:19;3.53;;;1.23;;
33672;SDS011;20011;51.510;9.942;2022-09-01T06:06:49;3.03;;;2.00;;
33672;SDS011;20011;51.510;9.942;2022-09-01T06:09:37;5.93;;;1.65;;
33672;SDS011;20011;51.510;9.942;2022-09-01T06:12:07;7.45;;;1.67;;
33672;SDS011;20011;51.510;9.942;2022-09-01T06:14:47;4.80;;;1.70;;
33672;SDS011;20011;51.510;9.942;2022-09-01T06:17:17;5.47;;;1.60;;
33672;SDS011;20011;51.510;9.942;2022-09-01T06:19:52;4.68;;;1.52;;
33672;SDS011;20011;51.510;9.942;2022-09-01T06:22:25;5.05;;;1.83;;
33672;SDS011;20011;51.510;9.942;2022-09-01T06:24:54;4.13;;;2.13;;
33672;SDS011;20011;51.510;9.942;2022-09-01T06:27:32;6.05;;;2.10;;
33672;SDS011;20011;51.510;9.942;2022-09-01T06:29:59;1.83;;;1.67;;
33672;SDS011;20011;51.510;9.942;2022-09-01T06:32:31;7.05;;;2.13;;
33672;SDS011;20011;51.510;9.942;2022-09-01T06:35:00;6.83;;;1.97;;
33672;SDS011;20011;51.510;9.942;2022-09-01T06:37:30;3.38;;;2.00;;
33672;SDS011;20011;51.510;9.942;2022-09-01T06:42:29;2.80;;;1.88;;
33672;SDS011;20011;51.510;9.942;2022-09-01T06:45:01;3.40;;;1.70;;
33672;SDS011;20011;51.510;9.942;2022-09-01T06:47:28;3.63;;;1.92;;
33672;SDS011;20011;51.510;9.942;2022-09-01T06:49:55;4.30;;;2.45;;
33672;SDS011;20011;51.510;9.942;2022-09-01T06:52:26;11.23;;;2.33;;
33672;SDS011;20011;51.510;9.942;2022-09-01T06:54:54;4.43;;;1.83;;
33672;SDS011;20011;51.510;9.942;2022-09-01T06:57:24;10.98;;;2.75;;
33672;SDS011;20011;51.510;9.942;2022-09-01T07:02:51;4.57;;;2.05;;
33672;SDS011;20011;51.510;9.942;2022-09-01T07:05:44;4.80;;;2.00;;
33672;SDS011;20011;51.510;9.942;2022-09-01T07:08:46;6.32;;;2.17;;
33672;SDS011;20011;51.510;9.942;2022-09-01T07:11:36;5.20;;;1.77;;
33672;SDS011;20011;51.510;9.942;2022-09-01T07:14:24;3.90;;;1.80;;
33672;SDS011;20011;51.510;9.942;2022-09-01T07:16:52;4.63;;;1.90;;
33672;SDS011;20011;51.510;9.942;2022-09-01T07:19:39;3.03;;;1.85;;
33672;SDS011;20011;51.510;9.942;2022-09-01T07:22:14;12.45;;;2.08;;
33672;SDS011;20011;51.510;9.942;2022-09-01T07:25:02;2.03;;;1.45;;
33672;SDS011;20011;51.510;9.942;2022-09-01T07:27:56;4.45;;;1.90;;
33672;SDS011;20011;51.510;9.942;2022-09-01T07:30:26;7.10;;;1.98;;
33672;SDS011;20011;51.510;9.942;2022-09-01T07:32:54;3.72;;;1.60;;
33672;SDS011;20011;51.510;9.942;2022-09-01T07:35:23;2.70;;;1.75;;
33672;SDS011;20011;51.510;9.942;2022-09-01T07:37:52;5.57;;;1.80;;
33672;SDS011;20011;51.510;9.942;2022-09-01T07:40:40;8.15;;;1.80;;
33672;SDS011;20011;51.510;9.942;2022-09-01T07:44:03;3.55;;;1.70;;
33672;SDS011;20011;51.510;9.942;2022-09-01T07:46:49;1.85;;;1.65;;
33672;SDS011;20011;51.510;9.942;2022-09-01T07:49:37;7.57;;;2.05;;
33672;SDS011;20011;51.510;9.942;2022-09-01T07:52:26;6.07;;;2.13;;
33672;SDS011;20011;51.510;9.942;2022-09-01T07:57:23;3.28;;;1.70;;
33672;SDS011;20011;51.510;9.942;2022-09-01T07:59:51;2.38;;;1.63;;
33672;SDS011;20011;51.510;9.942;2022-09-01T08:02:38;5.88;;;2.10;;
33672;SDS011;20011;51.510;9.942;2022-09-01T08:05:06;4.57;;;1.63;;
33672;SDS011;20011;51.510;9.942;2022-09-01T08:07:35;2.95;;;1.10;;
33672;SDS011;20011;51.510;9.942;2022-09-01T08:10:18;10.27;;;1.52;;
33672;SDS011;20011;51.510;9.942;2022-09-01T08:12:47;8.50;;;1.83;;
33672;SDS011;20011;51.510;9.942;2022-09-01T08:15:23;13.82;;;1.45;;
33672;SDS011;20011;51.510;9.942;2022-09-01T08:18:11;2.47;;;1.20;;
33672;SDS011;20011;51.510;9.942;2022-09-01T08:20:41;5.13;;;1.23;;
33672;SDS011;20011;51.510;9.942;2022-09-01T08:23:38;2.65;;;1.55;;
33672;SDS011;20011;51.510;9.942;2022-09-01T08:26:08;4.68;;;1.73;;
33672;SDS011;20011;51.510;9.942;2022-09-01T08:28:37;4.13;;;1.45;;
33672;SDS011;20011;51.510;9.942;2022-09-01T08:31:13;3.28;;;1.40;;
33672;SDS011;20011;51.510;9.942;2022-09-01T08:33:42;4.43;;;1.70;;
33672;SDS011;20011;51.510;9.942;2022-09-01T08:36:13;2.97;;;1.48;;
33672;SDS011;20011;51.510;9.942;2022-09-01T08:38:49;5.88;;;1.70;;
33672;SDS011;20011;51.510;9.942;2022-09-01T08:41:19;3.63;;;1.30;;
33672;SDS011;20011;51.510;9.942;2022-09-01T08:47:04;3.08;;;1.58;;
33672;SDS011;20011;51.510;9.942;2022-09-01T08:49:42;1.77;;;1.42;;
33672;SDS011;20011;51.510;9.942;2022-09-01T08:52:43;3.25;;;1.45;;
33672;SDS011;20011;51.510;9.942;2022-09-01T08:55:31;2.85;;;1.27;;
33672;SDS011;20011;51.510;9.942;2022-09-01T08:58:05;4.13;;;1.30;;
33672;SDS011;20011;51.510;9.942;2022-09-01T09:00:55;5.47;;;1.50;;
33672;SDS011;20011;51.510;9.942;2022-09-01T09:16:45;2.17;;;1.33;;
33672;SDS011;20011;51.510;9.942;2022-09-01T09:24:30;1.30;;;1.17;;
33672;SDS011;20011;51.510;9.942;2022-09-01T09:29:53;4.00;;;1.83;;
33672;SDS011;20011;51.510;9.942;2022-09-01T09:32:24;4.78;;;1.30;;
33672;SDS011;20011;51.510;9.942;2022-09-01T09:35:31;3.35;;;1.40;;
33672;SDS011;20011;51.510;9.942;2022-09-01T09:46:37;4.00;;;1.40;;
33672;SDS011;20011;51.510;9.942;2022-09-01T09:49:18;4.25;;;1.38;;
33672;SDS011;20011;51.510;9.942;2022-09-01T09:54:33;2.70;;;1.23;;
33672;SDS011;20011;51.510;9.942;2022-09-01T09:57:08;5.25;;;1.27;;
33672;SDS011;20011;51.510;9.942;2022-09-01T10:02:27;3.90;;;0.95;;
33672;SDS011;20011;51.510;9.942;2022-09-01T10:05:25;1.77;;;1.10;;
33672;SDS011;20011;51.510;9.942;2022-09-01T10:07:53;5.00;;;1.20;;
33672;SDS011;20011;51.510;9.942;2022-09-01T10:13:07;6.97;;;1.20;;
33672;SDS011;20011;51.510;9.942;2022-09-01T10:15:39;2.22;;;0.98;;
33672;SDS011;20011;51.510;9.942;2022-09-01T10:18:18;4.72;;;1.05;;
33672;SDS011;20011;51.510;9.942;2022-09-01T10:23:30;7.90;;;1.00;;
33672;SDS011;20011;51.510;9.942;2022-09-01T10:26:06;4.90;;;0.98;;
33672;SDS011;20011;51.510;9.942;2022-09-01T10:28:52;5.60;;;0.95;;
33672;SDS011;20011;51.510;9.942;2022-09-01T10:31:25;7.43;;;2.50;;
33672;SDS011;20011;51.510;9.942;2022-09-01T10:33:58;5.05;;;1.27;;
33672;SDS011;20011;51.510;9.942;2022-09-01T10:36:31;4.03;;;1.33;;
33672;SDS011;20011;51.510;9.942;2022-09-01T10:39:00;5.10;;;0.98;;
33672;SDS011;20011;51.510;9.942;2022-09-01T10:41:55;2.97;;;1.20;;
33672;SDS011;20011;51.510;9.942;2022-09-01T10:44:26;1.98;;;1.20;;
33672;SDS011;20011;51.510;9.942;2022-09-01T10:47:00;1.38;;;0.90;;
33672;SDS011;20011;51.510;9.942;2022-09-01T10:53:03;3.63;;;1.52;;
33672;SDS011;20011;51.510;9.942;2022-09-01T11:00:59;1.10;;;0.68;;
33672;SDS011;20011;51.510;9.942;2022-09-01T11:03:48;2.42;;;1.20;;
33672;SDS011;20011;51.510;9.942;2022-09-01T11:09:42;9.05;;;1.30;;
33672;SDS011;20011;51.510;9.942;2022-09-01T11:22:33;1.45;;;1.10;;
33672;SDS011;20011;51.510;9.942;2022-09-01T11:25:34;4.35;;;1.25;;
33672;SDS011;20011;51.510;9.942;2022-09-01T11:30:45;4.90;;;1.20;;
33672;SDS011;20011;51.510;9.942;2022-09-01T11:36:23;5.47;;;1.30;;
33672;SDS011;20011;51.510;9.942;2022-09-01T11:39:03;9.38;;;1.38;;
33672;SDS011;20011;51.510;9.942;2022-09-01T11:41:54;2.28;;;1.17;;
33672;SDS011;20011;51.510;9.942;2022-09-01T11:47:12;0.90;;;0.88;;
33672;SDS011;20011;51.510;9.942;2022-09-01T11:49:48;1.00;;;0.90;;
33672;SDS011;20011;51.510;9.942;2022-09-01T11:52:23;1.77;;;0.88;;
33672;SDS011;20011;51.510;9.942;2022-09-01T11:54:53;2.35;;;1.15;;
33672;SDS011;20011;51.510;9.942;2022-09-01T11:57:24;3.55;;;1.15;;
33672;SDS011;20011;51.510;9.942;2022-09-01T11:59:54;4.15;;;0.85;;
33672;SDS011;20011;51.510;9.942;2022-09-01T12:02:26;2.42;;;0.95;;
33672;SDS011;20011;51.510;9.942;2022-09-01T12:05:03;2.78;;;1.00;;
33672;SDS011;20011;51.510;9.942;2022-09-01T12:07:50;3.38;;;0.75;;
33672;SDS011;20011;51.510;9.942;2022-09-01T12:10:35;3.83;;;0.90;;
33672;SDS011;20011;51.510;9.942;2022-09-01T12:13:07;2.25;;;1.33;;
33672;SDS011;20011;51.510;9.942;2022-09-01T12:15:35;1.83;;;0.88;;
33672;SDS011;20011;51.510;9.942;2022-09-01T12:18:29;4.70;;;1.10;;
33672;SDS011;20011;51.510;9.942;2022-09-01T12:20:58;5.00;;;1.00;;
33672;SDS011;20011;51.510;9.942;2022-09-01T12:23:29;3.58;;;0.98;;
33672;SDS011;20011;51.510;9.942;2022-09-01T12:26:12;1.88;;;0.57;;
33672;SDS011;20011;51.510;9.942;2022-09-01T12:28:43;2.25;;;1.23;;
33672;SDS011;20011;51.510;9.942;2022-09-01T12:31:18;3.92;;;0.93;;
33672;SDS011;20011;51.510;9.942;2022-09-01T12:33:49;2.08;;;0.73;;
33672;SDS011;20011;51.510;9.942;2022-09-01T12:38:54;1.55;;;1.17;;
33672;SDS011;20011;51.510;9.942;2022-09-01T12:41:45;1.13;;;0.63;;
33672;SDS011;20011;51.510;9.942;2022-09-01T12:44:41;2.42;;;0.90;;
33672;SDS011;20011;51.510;9.942;2022-09-01T12:47:13;1.63;;;0.95;;
33672;SDS011;20011;51.510;9.942;2022-09-01T12:49:59;2.08;;;1.05;;
33672;SDS011;20011;51.510;9.942;2022-09-01T12:52:29;0.77;;;0.60;;
33672;SDS011;20011;51.510;9.942;2022-09-01T12:57:28;1.63;;;0.77;;
33672;SDS011;20011;51.510;9.942;2022-09-01T13:02:41;4.07;;;1.00;;
33672;SDS011;20011;51.510;9.942;2022-09-01T13:05:39;4.00;;;0.88;;
33672;SDS011;20011;51.510;9.942;2022-09-01T13:08:21;2.28;;;0.73;;
33672;SDS011;20011;51.510;9.942;2022-09-01T13:10:55;2.15;;;0.85;;
33672;SDS011;20011;51.510;9.942;2022-09-01T13:13:33;1.00;;;0.63;;
33672;SDS011;20011;51.510;9.942;2022-09-01T13:16:03;3.28;;;1.40;;
33672;SDS011;20011;51.510;9.942;2022-09-01T13:18:39;4.35;;;1.02;;
33672;SDS011;20011;51.510;9.942;2022-09-01T13:21:28;2.45;;;0.98;;
33672;SDS011;20011;51.510;9.942;2022-09-01T13:23:57;1.27;;;0.68;;
33672;SDS011;20011;51.510;9.942;2022-09-01T13:26:24;1.08;;;0.73;;
33672;SDS011;20011;51.510;9.942;2022-09-01T13:28:51;1.48;;;0.80;;
33672;SDS011;20011;51.510;9.942;2022-09-01T13:31:19;2.05;;;1.02;;
33672;SDS011;20011;51.510;9.942;2022-09-01T13:33:55;3.00;;;1.50;;
33672;SDS011;20011;51.510;9.942;2022-09-01T13:36:43;1.48;;;0.93;;
33672;SDS011;20011;51.510;9.942;2022-09-01T13:39:16;1.20;;;1.08;;
33672;SDS011;20011;51.510;9.942;2022-09-01T13:41:45;1.05;;;0.80;;
33672;SDS011;20011;51.510;9.942;2022-09-01T13:44:13;1.25;;;0.70;;
33672;SDS011;20011;51.510;9.942;2022-09-01T13:46:43;3.50;;;1.42;;
33672;SDS011;20011;51.510;9.942;2022-09-01T13:49:31;4.97;;;0.98;;
33672;SDS011;20011;51.510;9.942;2022-09-01T13:52:18;1.90;;;0.90;;
33672;SDS011;20011;51.510;9.942;2022-09-01T13:54:45;5.25;;;0.93;;
33672;SDS011;20011;51.510;9.942;2022-09-01T13:57:13;0.73;;;0.60;;
33672;SDS011;20011;51.510;9.942;2022-09-01T13:59:42;2.03;;;1.00;;
33672;SDS011;20011;51.510;9.942;2022-09-01T14:02:09;3.28;;;0.80;;
33672;SDS011;20011;51.510;9.942;2022-09-01T14:04:36;1.88;;;1.20;;
33672;SDS011;20011;51.510;9.942;2022-09-01T14:07:04;3.60;;;0.88;;
33672;SDS011;20011;51.510;9.942;2022-09-01T14:09:31;1.45;;;1.00;;
33672;SDS011;20011;51.510;9.942;2022-09-01T14:11:58;2.05;;;0.80;;
33672;SDS011;20011;51.510;9.942;2022-09-01T14:14:25;4.03;;;1.08;;
33672;SDS011;20011;51.510;9.942;2022-09-01T14:17:13;1.90;;;0.80;;
33672;SDS011;20011;51.510;9.942;2022-09-01T14:19:40;3.55;;;1.45;;
33672;SDS011;20011;51.510;9.942;2022-09-01T14:22:07;1.33;;;0.88;;
33672;SDS011;20011;51.510;9.942;2022-09-01T14:24:34;1.02;;;0.68;;
33672;SDS011;20011;51.510;9.942;2022-09-01T14:27:06;1.42;;;0.80;;
33672;SDS011;20011;51.510;9.942;2022-09-01T14:29:33;1.95;;;0.65;;
33672;SDS011;20011;51.510;9.942;2022-09-01T14:32:02;5.35;;;1.00;;
33672;SDS011;20011;51.510;9.942;2022-09-01T14:34:29;6.75;;;0.88;;
33672;SDS011;20011;51.510;9.942;2022-09-01T14:36:57;5.28;;;0.98;;
33672;SDS011;20011;51.510;9.942;2022-09-01T14:39:24;4.30;;;0.60;;
33672;SDS011;20011;51.510;9.942;2022-09-01T14:41:52;2.53;;;0.70;;
33672;SDS011;20011;51.510;9.942;2022-09-01T14:44:20;6.90;;;1.05;;
33672;SDS011;20011;51.510;9.942;2022-09-01T14:46:47;3.15;;;1.15;;
33672;SDS011;20011;51.510;9.942;2022-09-01T14:49:17;3.30;;;0.93;;
33672;SDS011;20011;51.510;9.942;2022-09-01T14:51:48;2.13;;;0.60;;
33672;SDS011;20011;51.510;9.942;2022-09-01T14:54:37;1.75;;;0.75;;
33672;SDS011;20011;51.510;9.942;2022-09-01T14:57:05;0.73;;;0.50;;
33672;SDS011;20011;51.510;9.942;2022-09-01T14:59:52;5.65;;;1.23;;
33672;SDS011;20011;51.510;9.942;2022-09-01T15:02:19;7.78;;;0.82;;
33672;SDS011;20011;51.510;9.942;2022-09-01T15:04:47;5.35;;;0.90;;
33672;SDS011;20011;51.510;9.942;2022-09-01T15:07:14;1.70;;;0.70;;
33672;SDS011;20011;51.510;9.942;2022-09-01T15:09:41;5.88;;;1.38;;
33672;SDS011;20011;51.510;9.942;2022-09-01T15:12:08;3.63;;;1.27;;
33672;SDS011;20011;51.510;9.942;2022-09-01T15:14:36;1.05;;;0.63;;
33672;SDS011;20011;51.510;9.942;2022-09-01T15:17:03;1.92;;;0.93;;
33672;SDS011;20011;51.510;9.942;2022-09-01T15:19:30;8.07;;;0.80;;
33672;SDS011;20011;51.510;9.942;2022-09-01T15:21:58;1.10;;;0.80;;
33672;SDS011;20011;51.510;9.942;2022-09-01T15:24:26;8.55;;;1.00;;
33672;SDS011;20011;51.510;9.942;2022-09-01T15:26:54;2.35;;;0.93;;
33672;SDS011;20011;51.510;9.942;2022-09-01T15:29:22;2.85;;;0.80;;
33672;SDS011;20011;51.510;9.942;2022-09-01T15:31:49;3.20;;;0.82;;
33672;SDS011;20011;51.510;9.942;2022-09-01T15:34:17;2.67;;;1.08;;
33672;SDS011;20011;51.510;9.942;2022-09-01T15:36:44;7.63;;;1.20;;
33672;SDS011;20011;51.510;9.942;2022-09-01T15:39:11;1.83;;;0.88;;
33672;SDS011;20011;51.510;9.942;2022-09-01T15:41:38;3.53;;;0.82;;
33672;SDS011;20011;51.510;9.942;2022-09-01T15:44:05;2.72;;;0.70;;
33672;SDS011;20011;51.510;9.942;2022-09-01T15:46:34;2.30;;;0.75;;
33672;SDS011;20011;51.510;9.942;2022-09-01T15:49:05;2.70;;;1.20;;
33672;SDS011;20011;51.510;9.942;2022-09-01T15:51:38;1.17;;;0.60;;
33672;SDS011;20011;51.510;9.942;2022-09-01T15:54:13;1.85;;;0.82;;
33672;SDS011;20011;51.510;9.942;2022-09-01T15:56:43;1.88;;;0.80;;
33672;SDS011;20011;51.510;9.942;2022-09-01T15:59:12;2.60;;;1.13;;
33672;SDS011;20011;51.510;9.942;2022-09-01T16:01:43;0.95;;;0.75;;
33672;SDS011;20011;51.510;9.942;2022-09-01T16:06:45;0.73;;;0.60;;
33672;SDS011;20011;51.510;9.942;2022-09-01T16:09:13;5.43;;;0.82;;
33672;SDS011;20011;51.510;9.942;2022-09-01T16:11:40;2.67;;;0.90;;
33672;SDS011;20011;51.510;9.942;2022-09-01T16:14:07;2.03;;;0.80;;
33672;SDS011;20011;51.510;9.942;2022-09-01T16:16:49;1.98;;;0.52;;
33672;SDS011;20011;51.510;9.942;2022-09-01T16:22:29;1.65;;;1.00;;
33672;SDS011;20011;51.510;9.942;2022-09-01T16:25:23;3.15;;;0.90;;
33672;SDS011;20011;51.510;9.942;2022-09-01T16:27:50;1.70;;;0.70;;
33672;SDS011;20011;51.510;9.942;2022-09-01T16:30:19;1.23;;;0.90;;
33672;SDS011;20011;51.510;9.942;2022-09-01T16:32:48;1.42;;;0.47;;
33672;SDS011;20011;51.510;9.942;2022-09-01T16:35:16;1.38;;;0.88;;
33672;SDS011;20011;51.510;9.942;2022-09-01T16:43:41;0.90;;;0.80;;
33672;SDS011;20011;51.510;9.942;2022-09-01T16:48:53;1.15;;;0.55;;
33672;SDS011;20011;51.510;9.942;2022-09-01T16:57:59;3.85;;;1.15;;
33672;SDS011;20011;51.510;9.942;2022-09-01T17:00:42;6.53;;;0.80;;
33672;SDS011;20011;51.510;9.942;2022-09-01T17:03:25;9.43;;;0.90;;
33672;SDS011;20011;51.510;9.942;2022-09-01T17:06:28;6.47;;;1.00;;
33672;SDS011;20011;51.510;9.942;2022-09-01T17:09:05;1.48;;;0.70;;
33672;SDS011;20011;51.510;9.942;2022-09-01T17:11:47;4.72;;;0.90;;
33672;SDS011;20011;51.510;9.942;2022-09-01T17:14:32;5.22;;;0.85;;
33672;SDS011;20011;51.510;9.942;2022-09-01T17:17:09;2.72;;;0.85;;
33672;SDS011;20011;51.510;9.942;2022-09-01T17:19:40;0.60;;;0.60;;
33672;SDS011;20011;51.510;9.942;2022-09-01T17:22:09;6.07;;;2.00;;
33672;SDS011;20011;51.510;9.942;2022-09-01T17:24:48;0.80;;;0.60;;